createdAt,value
2023-01-01T00:00:49.057Z,15.20
2023-01-01T00:03:16.519Z,15.10
2023-01-01T00:05:45.442Z,15.20
2023-01-01T00:08:13.860Z,15.00
2023-01-01T00:10:41.032Z,15.00
2023-01-01T00:13:08.232Z,15.10
2023-01-01T00:15:35.252Z,15.10
2023-01-01T00:18:02.247Z,14.90
2023-01-01T00:20:35.226Z,14.90
2023-01-01T00:23:02.873Z,14.80
2023-01-01T00:25:31.604Z,14.80
2023-01-01T00:27:59.912Z,14.70
2023-01-01T00:30:28.035Z,14.70
2023-01-01T00:32:56.327Z,14.70
2023-01-01T00:35:27.145Z,14.70
2023-01-01T00:37:55.475Z,14.70
2023-01-01T00:40:23.295Z,14.80
2023-01-01T00:42:50.455Z,14.80
2023-01-01T00:45:21.995Z,14.80
2023-01-01T00:47:50.787Z,14.70
2023-01-01T00:50:18.275Z,14.80
2023-01-01T00:52:45.232Z,14.80
2023-01-01T00:55:12.661Z,14.70
2023-01-01T00:57:39.697Z,14.70
2023-01-01T01:00:08.202Z,14.70
2023-01-01T01:02:35.418Z,14.70
2023-01-01T01:05:04.850Z,14.70
2023-01-01T01:07:38.676Z,14.70
2023-01-01T01:10:07.202Z,14.70
2023-01-01T01:12:36.129Z,14.70
2023-01-01T01:15:04.295Z,14.70
2023-01-01T01:17:31.450Z,14.70
2023-01-01T01:19:58.472Z,14.70
2023-01-01T01:22:28.743Z,14.70
2023-01-01T01:24:57.013Z,14.70
2023-01-01T01:27:24.775Z,14.70
2023-01-01T01:29:52.196Z,14.70
2023-01-01T01:32:19.345Z,14.80
2023-01-01T01:34:47.738Z,14.70
2023-01-01T01:37:15.132Z,14.70
2023-01-01T01:39:42.489Z,14.70
2023-01-01T01:42:19.086Z,14.70
2023-01-01T01:44:48.861Z,14.70
2023-01-01T01:47:39.767Z,14.60
2023-01-01T01:50:15.979Z,14.60
2023-01-01T01:53:16.006Z,14.70
2023-01-01T01:55:52.288Z,14.80
2023-01-01T01:58:19.633Z,14.60
2023-01-01T02:00:47.253Z,14.60
2023-01-01T02:03:20.294Z,14.70
2023-01-01T02:05:48.849Z,14.70
2023-01-01T02:08:16.706Z,14.60
2023-01-01T02:10:44.216Z,14.60
2023-01-01T02:13:11.732Z,14.60
2023-01-01T02:15:50.848Z,14.60
2023-01-01T02:18:25.348Z,14.60
2023-01-01T02:21:07.898Z,14.70
2023-01-01T02:24:00.835Z,14.70
2023-01-01T02:27:01.223Z,14.60
2023-01-01T02:29:55.319Z,14.60
2023-01-01T02:32:27.585Z,14.70
2023-01-01T02:35:22.001Z,14.70
2023-01-01T02:37:51.233Z,14.70
2023-01-01T02:40:21.580Z,14.70
2023-01-01T02:42:49.538Z,14.70
2023-01-01T02:45:16.752Z,14.60
2023-01-01T02:47:43.895Z,14.60
2023-01-01T02:50:25.538Z,14.60
2023-01-01T02:53:02.076Z,14.60
2023-01-01T02:55:44.736Z,14.60
2023-01-01T02:58:54.804Z,14.70
2023-01-01T03:01:34.557Z,14.80
2023-01-01T03:04:13.133Z,14.80
2023-01-01T03:06:43.813Z,14.70
2023-01-01T03:09:19.729Z,14.70
2023-01-01T03:12:06.947Z,14.70
2023-01-01T03:15:07.194Z,14.70
2023-01-01T03:17:39.209Z,14.70
2023-01-01T03:20:17.063Z,14.70
2023-01-01T03:25:17.790Z,14.70
2023-01-01T03:27:49.319Z,14.70
2023-01-01T03:30:19.935Z,14.60
2023-01-01T03:33:01.325Z,14.60
2023-01-01T03:36:03.147Z,14.60
2023-01-01T03:38:35.941Z,14.60
2023-01-01T03:41:10.305Z,14.60
2023-01-01T03:43:49.682Z,14.50
2023-01-01T03:46:24.260Z,14.60
2023-01-01T03:49:03.232Z,14.60
2023-01-01T03:51:52.994Z,14.60
2023-01-01T03:54:52.385Z,14.60
2023-01-01T03:57:32.784Z,14.60
2023-01-01T04:00:09.783Z,14.50
2023-01-01T04:02:56.735Z,14.60
2023-01-01T04:05:24.805Z,14.50
2023-01-01T04:07:53.503Z,14.50
2023-01-01T04:10:21.552Z,14.50
2023-01-01T04:12:56.682Z,14.40
2023-01-01T04:15:27.992Z,14.50
2023-01-01T04:17:55.203Z,14.60
2023-01-01T04:20:23.135Z,14.50
2023-01-01T04:22:50.636Z,14.50
2023-01-01T04:25:18.143Z,14.50
2023-01-01T04:27:45.112Z,14.50
2023-01-01T04:30:14.566Z,14.40
2023-01-01T04:32:42.135Z,14.40
2023-01-01T04:35:12.885Z,14.40
2023-01-01T04:37:42.092Z,14.40
2023-01-01T04:40:10.680Z,14.40
2023-01-01T04:42:37.858Z,14.40
2023-01-01T04:45:05.313Z,14.50
2023-01-01T04:47:32.643Z,14.50
2023-01-01T04:49:59.614Z,14.50
2023-01-01T04:52:27.294Z,14.40
2023-01-01T04:54:54.328Z,14.30
2023-01-01T04:57:21.348Z,14.20
2023-01-01T04:59:48.337Z,14.20
2023-01-01T05:02:15.480Z,14.20
2023-01-01T05:04:42.496Z,14.10
2023-01-01T05:07:09.476Z,14.00
2023-01-01T05:09:36.762Z,14.00
2023-01-01T05:12:03.858Z,13.90
2023-01-01T05:14:30.869Z,13.90
2023-01-01T05:16:57.811Z,13.90
2023-01-01T05:19:24.964Z,13.80
2023-01-01T05:21:52.037Z,13.70
2023-01-01T05:24:18.957Z,13.70
2023-01-01T05:26:46.399Z,13.60
2023-01-01T05:29:16.888Z,13.60
2023-01-01T05:31:45.478Z,13.50
2023-01-01T05:34:12.685Z,13.40
2023-01-01T05:36:39.700Z,13.40
2023-01-01T05:39:08.577Z,13.30
2023-01-01T05:41:36.723Z,13.30
2023-01-01T05:44:06.623Z,13.30
2023-01-01T05:46:33.758Z,13.30
2023-01-01T05:49:01.227Z,13.30
2023-01-01T05:51:29.908Z,13.30
2023-01-01T05:53:58.132Z,13.20
2023-01-01T05:56:26.961Z,13.20
2023-01-01T05:58:54.664Z,13.10
2023-01-01T06:01:24.799Z,13.00
2023-01-01T06:03:53.361Z,13.00
2023-01-01T06:06:23.030Z,12.90
2023-01-01T06:09:01.360Z,12.80
2023-01-01T06:11:29.163Z,12.80
2023-01-01T06:13:58.864Z,12.70
2023-01-01T06:16:27.048Z,12.60
2023-01-01T06:18:54.073Z,12.60
2023-01-01T06:21:23.701Z,12.50
2023-01-01T06:23:50.836Z,12.50
2023-01-01T06:26:26.613Z,12.50
2023-01-01T06:28:53.659Z,12.50
2023-01-01T06:31:22.098Z,12.40
2023-01-01T06:33:50.904Z,12.50
2023-01-01T06:36:20.493Z,12.50
2023-01-01T06:38:50.393Z,12.40
2023-01-01T06:41:22.880Z,12.40
2023-01-01T06:43:50.614Z,12.30
2023-01-01T06:46:24.516Z,12.30
2023-01-01T06:48:54.783Z,12.30
2023-01-01T06:51:24.000Z,12.20
2023-01-01T06:53:52.566Z,12.20
2023-01-01T06:56:23.075Z,12.20
2023-01-01T06:58:50.257Z,12.20
2023-01-01T07:01:19.636Z,12.20
2023-01-01T07:04:01.250Z,12.10
2023-01-01T07:06:30.213Z,12.10
2023-01-01T07:08:57.368Z,12.10
2023-01-01T07:11:25.408Z,12.00
2023-01-01T07:13:55.556Z,12.00
2023-01-01T07:16:23.513Z,12.00
2023-01-01T07:18:51.143Z,12.00
2023-01-01T07:21:29.647Z,12.00
2023-01-01T07:24:05.625Z,12.00
2023-01-01T07:26:35.108Z,12.10
2023-01-01T07:29:07.508Z,12.00
2023-01-01T07:31:37.274Z,12.10
2023-01-01T07:34:09.679Z,12.10
2023-01-01T07:36:36.599Z,12.00
2023-01-01T07:39:03.645Z,12.00
2023-01-01T07:41:30.734Z,12.00
2023-01-01T07:43:59.339Z,12.00
2023-01-01T07:46:29.106Z,12.00
2023-01-01T07:48:57.110Z,12.00
2023-01-01T07:51:24.203Z,12.00
2023-01-01T07:53:52.672Z,12.00
2023-01-01T07:56:24.834Z,12.00
2023-01-01T07:58:52.050Z,12.00
2023-01-01T08:01:20.833Z,12.00
2023-01-01T08:03:52.983Z,11.90
2023-01-01T08:06:20.334Z,11.90
2023-01-01T08:08:47.238Z,11.90
2023-01-01T08:11:14.450Z,11.90
2023-01-01T08:13:41.363Z,11.90
2023-01-01T08:16:08.413Z,11.80
2023-01-01T08:18:35.838Z,11.80
2023-01-01T08:21:03.911Z,11.90
2023-01-01T08:23:31.086Z,11.90
2023-01-01T08:26:05.201Z,11.80
2023-01-01T08:28:35.801Z,11.80
2023-01-01T08:31:02.806Z,11.80
2023-01-01T08:33:29.983Z,11.80
2023-01-01T08:35:57.054Z,11.80
2023-01-01T08:38:24.266Z,11.80
2023-01-01T08:40:54.142Z,11.80
2023-01-01T08:43:21.219Z,11.80
2023-01-01T08:45:52.939Z,11.80
2023-01-01T08:48:22.200Z,11.80
2023-01-01T08:51:01.774Z,11.80
2023-01-01T08:53:33.139Z,11.80
2023-01-01T08:56:08.665Z,11.80
2023-01-01T08:58:37.670Z,11.80
2023-01-01T09:01:06.503Z,11.80
2023-01-01T09:03:34.252Z,11.80
2023-01-01T09:06:12.891Z,11.80
2023-01-01T09:08:46.335Z,11.80
2023-01-01T09:11:25.267Z,11.80
2023-01-01T09:13:53.096Z,11.80
2023-01-01T09:16:21.202Z,11.80
2023-01-01T09:18:48.704Z,11.70
2023-01-01T09:21:15.846Z,11.60
2023-01-01T09:23:42.974Z,11.60
2023-01-01T09:26:10.885Z,11.60
2023-01-01T09:28:38.692Z,11.50
2023-01-01T09:31:08.598Z,11.40
2023-01-01T09:33:35.790Z,11.40
2023-01-01T09:36:32.876Z,11.40
2023-01-01T09:39:00.979Z,11.40
2023-01-01T09:42:03.369Z,11.40
2023-01-01T09:45:15.370Z,11.40
2023-01-01T09:47:46.428Z,11.40
2023-01-01T09:50:25.763Z,11.40
2023-01-01T09:52:59.536Z,11.40
2023-01-01T09:55:29.691Z,11.40
2023-01-01T09:57:57.541Z,11.40
2023-01-01T10:00:25.311Z,11.40
2023-01-01T10:03:01.476Z,11.40
2023-01-01T10:05:38.080Z,11.40
2023-01-01T10:08:23.140Z,11.40
2023-01-01T10:11:11.334Z,11.40
2023-01-01T10:13:46.067Z,11.50
2023-01-01T10:16:42.251Z,11.50
2023-01-01T10:19:31.824Z,11.50
2023-01-01T10:22:22.806Z,11.50
2023-01-01T10:24:55.116Z,11.40
2023-01-01T10:27:36.971Z,11.40
2023-01-01T10:30:17.851Z,11.40
2023-01-01T10:32:51.011Z,11.40
2023-01-01T10:35:35.380Z,11.40
2023-01-01T10:38:04.469Z,11.40
2023-01-01T10:40:32.412Z,11.40
2023-01-01T10:43:01.525Z,11.40
2023-01-01T10:45:35.341Z,11.50
2023-01-01T10:48:22.479Z,11.60
2023-01-01T10:50:55.639Z,11.70
2023-01-01T10:53:49.772Z,11.80
2023-01-01T10:56:19.669Z,11.90
2023-01-01T10:58:48.225Z,12.00
2023-01-01T11:01:17.927Z,12.10
2023-01-01T11:03:59.151Z,12.10
2023-01-01T11:06:33.531Z,12.10
2023-01-01T11:09:04.748Z,12.10
2023-01-01T11:11:46.411Z,12.10
2023-01-01T11:14:29.958Z,12.20
2023-01-01T11:16:58.443Z,12.20
2023-01-01T11:19:31.091Z,12.20
2023-01-01T11:21:59.231Z,12.20
2023-01-01T11:24:31.418Z,12.20
2023-01-01T11:27:26.245Z,12.30
2023-01-01T11:30:22.446Z,12.30
2023-01-01T11:32:55.696Z,12.40
2023-01-01T11:35:26.270Z,12.40
2023-01-01T11:37:55.134Z,12.40
2023-01-01T11:40:32.587Z,12.40
2023-01-01T11:43:04.090Z,12.40
2023-01-01T11:45:42.785Z,12.50
2023-01-01T11:48:32.983Z,12.50
2023-01-01T11:51:06.175Z,12.60
2023-01-01T11:53:37.134Z,12.60
2023-01-01T11:56:20.447Z,12.60
2023-01-01T11:59:04.095Z,12.70
2023-01-01T12:01:52.607Z,12.70
2023-01-01T12:04:45.844Z,12.70
2023-01-01T12:07:20.200Z,12.70
2023-01-01T12:10:06.484Z,12.70
2023-01-01T12:12:44.033Z,12.70
2023-01-01T12:15:23.843Z,12.70
2023-01-01T12:18:25.582Z,12.80
2023-01-01T12:21:15.077Z,12.90
2023-01-01T12:23:42.218Z,13.00
2023-01-01T12:26:38.693Z,13.00
2023-01-01T12:29:50.853Z,13.10
2023-01-01T12:32:34.903Z,13.10
2023-01-01T12:35:19.824Z,13.20
2023-01-01T12:38:11.219Z,13.10
2023-01-01T12:40:48.304Z,13.10
2023-01-01T12:43:35.594Z,13.10
2023-01-01T12:46:27.601Z,13.00
2023-01-01T12:49:23.630Z,13.10
2023-01-01T12:52:22.359Z,13.00
2023-01-01T12:55:25.166Z,13.00
2023-01-01T12:58:08.468Z,13.00
2023-01-01T13:00:38.779Z,13.00
2023-01-01T13:03:14.337Z,13.00
2023-01-01T13:05:45.582Z,13.00
2023-01-01T13:08:12.743Z,13.00
2023-01-01T13:10:43.368Z,13.00
2023-01-01T13:13:13.058Z,13.00
2023-01-01T13:15:44.139Z,13.00
2023-01-01T13:18:14.082Z,12.90
2023-01-01T13:21:07.105Z,12.90
2023-01-01T13:23:38.384Z,12.90
2023-01-01T13:26:20.999Z,13.00
2023-01-01T13:29:05.511Z,13.00
2023-01-01T13:31:38.805Z,13.00
2023-01-01T13:34:30.733Z,13.00
2023-01-01T13:37:17.297Z,13.00
2023-01-01T13:40:01.094Z,13.00
2023-01-01T13:43:02.362Z,13.00
2023-01-01T13:46:09.837Z,13.10
2023-01-01T13:48:48.277Z,13.00
2023-01-01T13:51:40.157Z,13.00
2023-01-01T13:54:34.275Z,13.00
2023-01-01T13:57:13.709Z,13.00
2023-01-01T14:00:10.132Z,13.00
2023-01-01T14:02:50.859Z,13.00
2023-01-01T14:05:44.107Z,13.00
2023-01-01T14:08:46.618Z,12.90
2023-01-01T14:11:24.920Z,12.90
2023-01-01T14:13:51.867Z,12.90
2023-01-01T14:16:19.003Z,12.80
2023-01-01T14:18:49.634Z,12.80
2023-01-01T14:21:20.449Z,12.80
2023-01-01T14:23:54.978Z,12.80
2023-01-01T14:26:25.643Z,12.80
2023-01-01T14:28:57.356Z,12.70
2023-01-01T14:31:31.425Z,12.70
2023-01-01T14:33:59.221Z,12.70
2023-01-01T14:36:29.224Z,12.60
2023-01-01T14:39:03.317Z,12.60
2023-01-01T14:41:39.088Z,12.60
2023-01-01T14:44:18.667Z,12.60
2023-01-01T14:46:52.256Z,12.60
2023-01-01T14:49:33.443Z,12.60
2023-01-01T14:52:21.414Z,12.60
2023-01-01T14:54:48.830Z,12.60
2023-01-01T14:57:20.276Z,12.60
2023-01-01T14:59:57.342Z,12.60
2023-01-01T15:02:28.397Z,12.60
2023-01-01T15:04:56.784Z,12.60
2023-01-01T15:07:25.359Z,12.60
2023-01-01T15:09:54.542Z,12.50
2023-01-01T15:12:22.929Z,12.50
2023-01-01T15:14:53.026Z,12.50
2023-01-01T15:17:25.333Z,12.50
2023-01-01T15:20:03.079Z,12.50
2023-01-01T15:22:35.571Z,12.50
2023-01-01T15:25:04.041Z,12.40
2023-01-01T15:27:36.217Z,12.40
2023-01-01T15:30:11.612Z,12.40
2023-01-01T15:32:41.598Z,12.40
2023-01-01T15:35:31.474Z,12.40
2023-01-01T15:38:19.698Z,12.40
2023-01-01T15:40:52.940Z,12.40
2023-01-01T15:43:25.682Z,12.40
2023-01-01T15:46:36.346Z,12.40
2023-01-01T15:49:03.596Z,12.40
2023-01-01T15:51:31.025Z,12.40
2023-01-01T15:53:59.365Z,12.40
2023-01-01T15:56:29.565Z,12.40
2023-01-01T15:59:09.726Z,12.40
2023-01-01T16:01:39.345Z,12.40
2023-01-01T16:04:28.264Z,12.40
2023-01-01T16:06:58.003Z,12.30
2023-01-01T16:09:25.470Z,12.30
2023-01-01T16:11:54.631Z,12.30
2023-01-01T16:14:22.236Z,12.20
2023-01-01T16:17:00.851Z,12.20
2023-01-01T16:19:30.909Z,12.20
2023-01-01T16:21:58.657Z,12.20
2023-01-01T16:24:25.716Z,12.20
2023-01-01T16:26:53.207Z,12.20
2023-01-01T16:29:20.241Z,12.20
2023-01-01T16:31:50.578Z,12.20
2023-01-01T16:34:17.836Z,12.20
2023-01-01T16:36:45.520Z,12.20
2023-01-01T16:39:12.640Z,12.10
2023-01-01T16:41:43.896Z,12.10
2023-01-01T16:44:16.838Z,12.10
2023-01-01T16:46:44.188Z,12.00
2023-01-01T16:49:11.509Z,12.00
2023-01-01T16:51:43.165Z,12.00
2023-01-01T16:54:10.697Z,12.00
2023-01-01T16:56:38.276Z,12.00
2023-01-01T16:59:05.300Z,11.90
2023-01-01T17:01:33.732Z,11.90
2023-01-01T17:04:00.965Z,11.90
2023-01-01T17:06:28.140Z,11.80
2023-01-01T17:08:55.220Z,11.80
2023-01-01T17:11:24.882Z,11.80
2023-01-01T17:13:52.013Z,11.80
2023-01-01T17:16:26.987Z,11.70
2023-01-01T17:19:17.037Z,11.70
2023-01-01T17:21:46.477Z,11.70
2023-01-01T17:24:15.404Z,11.70
2023-01-01T17:26:42.459Z,11.70
2023-01-01T17:29:09.505Z,11.60
2023-01-01T17:31:36.736Z,11.60
2023-01-01T17:34:04.339Z,11.60
2023-01-01T17:36:32.755Z,11.60
2023-01-01T17:38:59.819Z,11.60
2023-01-01T17:41:26.779Z,11.50
2023-01-01T17:43:53.832Z,11.50
2023-01-01T17:46:33.207Z,11.50
2023-01-01T17:49:01.847Z,11.40
2023-01-01T17:51:29.403Z,11.40
2023-01-01T17:53:56.964Z,11.40
2023-01-01T17:56:24.871Z,11.40
2023-01-01T17:58:53.865Z,11.40
2023-01-01T18:01:24.126Z,11.40
2023-01-01T18:03:53.385Z,11.30
2023-01-01T18:06:20.717Z,11.30
2023-01-01T18:08:47.848Z,11.30
2023-01-01T18:11:15.326Z,11.30
2023-01-01T18:13:42.572Z,11.30
2023-01-01T18:16:10.176Z,11.30
2023-01-01T18:18:40.693Z,11.30
2023-01-01T18:21:12.048Z,11.20
2023-01-01T18:23:40.069Z,11.20
2023-01-01T18:26:10.226Z,11.20
2023-01-01T18:28:38.063Z,11.20
2023-01-01T18:31:32.691Z,11.20
2023-01-01T18:34:01.613Z,11.20
2023-01-01T18:36:30.513Z,11.20
2023-01-01T18:39:01.849Z,11.20
2023-01-01T18:41:47.087Z,11.10
2023-01-01T18:44:23.094Z,11.20
2023-01-01T18:46:58.635Z,11.10
2023-01-01T18:49:26.057Z,11.20
2023-01-01T18:52:06.079Z,11.10
2023-01-01T18:54:33.829Z,11.10
2023-01-01T18:57:16.720Z,11.10
2023-01-01T18:59:43.807Z,11.10
2023-01-01T19:02:51.828Z,11.10
2023-01-01T19:05:27.623Z,11.10
2023-01-01T19:08:01.485Z,11.10
2023-01-01T19:10:50.688Z,11.10
2023-01-01T19:13:41.960Z,11.10
2023-01-01T19:16:12.311Z,11.10
2023-01-01T19:18:41.569Z,11.10
2023-01-01T19:21:11.692Z,11.10
2023-01-01T19:23:50.740Z,11.10
2023-01-01T19:26:32.808Z,11.10
2023-01-01T19:29:14.924Z,11.10
2023-01-01T19:31:42.064Z,11.10
2023-01-01T19:34:09.551Z,11.00
2023-01-01T19:36:38.696Z,11.00
2023-01-01T19:39:06.776Z,11.00
2023-01-01T19:41:34.103Z,11.00
2023-01-01T19:44:01.454Z,11.00
2023-01-01T19:46:28.548Z,11.00
2023-01-01T19:48:55.787Z,11.00
2023-01-01T19:51:22.878Z,11.00
2023-01-01T19:53:50.926Z,11.00
2023-01-01T19:56:18.582Z,11.00
2023-01-01T19:58:46.399Z,11.00
2023-01-01T20:01:14.801Z,11.00
2023-01-01T20:03:57.857Z,11.00
2023-01-01T20:06:25.912Z,11.00
2023-01-01T20:08:53.887Z,11.00
2023-01-01T20:11:21.400Z,10.90
2023-01-01T20:13:48.812Z,11.00
2023-01-01T20:16:15.871Z,11.00
2023-01-01T20:18:43.548Z,11.00
2023-01-01T20:21:29.347Z,11.00
2023-01-01T20:23:56.371Z,11.00
2023-01-01T20:26:25.716Z,11.00
2023-01-01T20:29:11.924Z,11.00
2023-01-01T20:31:39.297Z,11.00
2023-01-01T20:34:06.572Z,11.10
2023-01-01T20:36:54.424Z,11.10
2023-01-01T20:39:22.665Z,11.10
2023-01-01T20:41:50.363Z,11.10
2023-01-01T20:44:17.622Z,11.00
2023-01-01T20:46:46.212Z,11.00
2023-01-01T20:49:13.692Z,11.00
2023-01-01T20:51:40.713Z,11.00
2023-01-01T20:54:07.803Z,11.00
2023-01-01T20:56:34.997Z,11.00
2023-01-01T20:59:24.373Z,11.00
2023-01-01T21:01:50.029Z,11.00
2023-01-01T21:04:17.567Z,11.00
2023-01-01T21:06:44.818Z,11.00
2023-01-01T21:09:12.467Z,11.00
2023-01-01T21:11:39.647Z,11.00
2023-01-01T21:14:06.713Z,11.00
2023-01-01T21:16:36.779Z,11.00
2023-01-01T21:19:08.621Z,11.00
2023-01-01T21:22:01.196Z,11.00
2023-01-01T21:24:33.325Z,10.90
2023-01-01T21:27:09.347Z,10.90
2023-01-01T21:29:38.333Z,10.90
2023-01-01T21:32:26.941Z,10.90
2023-01-01T21:34:55.549Z,10.90
2023-01-01T21:37:47.744Z,10.90
2023-01-01T21:40:50.038Z,10.90
2023-01-01T21:43:29.439Z,10.90
2023-01-01T21:46:18.529Z,10.90
2023-01-01T21:49:06.350Z,10.90
2023-01-01T21:51:55.661Z,10.90
2023-01-01T21:54:34.720Z,10.90
2023-01-01T21:57:13.603Z,10.90
2023-01-01T21:59:43.677Z,10.90
2023-01-01T22:02:10.683Z,11.00
2023-01-01T22:04:45.111Z,11.00
2023-01-01T22:10:26.867Z,11.10
2023-01-01T22:12:59.025Z,11.10
2023-01-01T22:15:36.406Z,11.10
2023-01-01T22:18:12.316Z,11.10
2023-01-01T22:20:42.460Z,11.10
2023-01-01T22:23:24.593Z,11.10
2023-01-01T22:25:52.596Z,11.20
2023-01-01T22:28:23.811Z,11.20
2023-01-01T22:30:57.300Z,11.20
2023-01-01T22:33:39.576Z,11.20
2023-01-01T22:36:26.316Z,11.20
2023-01-01T22:38:57.007Z,11.20
2023-01-01T22:41:24.192Z,11.20
2023-01-01T22:43:56.157Z,11.30
2023-01-01T22:46:28.565Z,11.30
2023-01-01T22:48:59.843Z,11.30
2023-01-01T22:51:39.053Z,11.30
2023-01-01T22:54:06.249Z,11.30
2023-01-01T22:56:33.307Z,11.30
2023-01-01T22:59:00.584Z,11.30
2023-01-01T23:01:27.603Z,11.40
2023-01-01T23:03:54.783Z,11.40
2023-01-01T23:06:22.389Z,11.30
2023-01-01T23:08:50.967Z,11.30
2023-01-01T23:11:18.477Z,11.40
2023-01-01T23:14:08.853Z,11.40
2023-01-01T23:16:36.149Z,11.40
2023-01-01T23:19:04.814Z,11.40
2023-01-01T23:21:34.248Z,11.40
2023-01-01T23:24:05.271Z,11.40
2023-01-01T23:26:32.371Z,11.40
2023-01-01T23:28:59.366Z,11.40
2023-01-01T23:31:28.099Z,11.40
2023-01-01T23:33:57.428Z,11.40
2023-01-01T23:36:28.429Z,11.50
2023-01-01T23:38:55.448Z,11.50
2023-01-01T23:41:23.268Z,11.50
2023-01-01T23:43:50.408Z,11.50
2023-01-01T23:46:18.757Z,11.50
2023-01-01T23:48:47.183Z,11.50
2023-01-01T23:51:16.391Z,11.60
2023-01-01T23:53:43.365Z,11.60
2023-01-01T23:56:10.465Z,11.60
2023-01-01T23:58:37.546Z,11.60
